sensor_id;sensor_type;location;lat;lon;timestamp;P1;durP1;ratioP1;P2;durP2;ratioP2
11338;SDS011;5724;42.684;23.252;2022-12-29T00:02:02;40.60;;;31.20;;
11338;SDS011;5724;42.684;23.252;2022-12-29T00:04:27;35.73;;;29.10;;
11338;SDS011;5724;42.684;23.252;2022-12-29T00:06:53;42.80;;;29.93;;
11338;SDS011;5724;42.684;23.252;2022-12-29T00:09:19;44.93;;;31.83;;
11338;SDS011;5724;42.684;23.252;2022-12-29T00:11:44;53.47;;;35.67;;
11338;SDS011;5724;42.684;23.252;2022-12-29T00:14:10;56.60;;;36.43;;
11338;SDS011;5724;42.684;23.252;2022-12-29T00:16:55;78.80;;;45.13;;
11338;SDS011;5724;42.684;23.252;2022-12-29T00:19:21;74.27;;;45.97;;
11338;SDS011;5724;42.684;23.252;2022-12-29T00:22:05;53.57;;;36.90;;
11338;SDS011;5724;42.684;23.252;2022-12-29T00:24:49;49.60;;;33.83;;
11338;SDS011;5724;42.684;23.252;2022-12-29T00:27:33;46.23;;;34.17;;
11338;SDS011;5724;42.684;23.252;2022-12-29T00:30:18;42.27;;;31.53;;
11338;SDS011;5724;42.684;23.252;2022-12-29T00:33:10;39.00;;;29.60;;
11338;SDS011;5724;42.684;23.252;2022-12-29T00:36:03;35.27;;;27.20;;
11338;SDS011;5724;42.684;23.252;2022-12-29T00:38:32;32.37;;;26.63;;
11338;SDS011;5724;42.684;23.252;2022-12-29T00:41:20;33.63;;;26.77;;
11338;SDS011;5724;42.684;23.252;2022-12-29T00:44:05;32.03;;;26.57;;
11338;SDS011;5724;42.684;23.252;2022-12-29T00:49:15;37.57;;;29.00;;
11338;SDS011;5724;42.684;23.252;2022-12-29T00:52:00;46.47;;;31.93;;
11338;SDS011;5724;42.684;23.252;2022-12-29T00:54:26;38.60;;;30.03;;
11338;SDS011;5724;42.684;23.252;2022-12-29T00:56:52;35.70;;;27.90;;
11338;SDS011;5724;42.684;23.252;2022-12-29T00:59:18;37.00;;;27.47;;
11338;SDS011;5724;42.684;23.252;2022-12-29T01:01:44;35.63;;;27.67;;
11338;SDS011;5724;42.684;23.252;2022-12-29T01:04:11;35.73;;;28.27;;
11338;SDS011;5724;42.684;23.252;2022-12-29T01:06:37;35.50;;;28.50;;
11338;SDS011;5724;42.684;23.252;2022-12-29T01:09:04;35.23;;;27.83;;
11338;SDS011;5724;42.684;23.252;2022-12-29T01:11:49;38.17;;;28.50;;
11338;SDS011;5724;42.684;23.252;2022-12-29T01:14:15;33.40;;;28.57;;
11338;SDS011;5724;42.684;23.252;2022-12-29T01:16:42;34.23;;;27.63;;
11338;SDS011;5724;42.684;23.252;2022-12-29T01:19:07;33.57;;;28.87;;
11338;SDS011;5724;42.684;23.252;2022-12-29T01:21:32;39.07;;;29.93;;
11338;SDS011;5724;42.684;23.252;2022-12-29T01:23:58;37.07;;;29.57;;
11338;SDS011;5724;42.684;23.252;2022-12-29T01:26:23;35.13;;;29.27;;
11338;SDS011;5724;42.684;23.252;2022-12-29T01:28:49;37.40;;;29.27;;
11338;SDS011;5724;42.684;23.252;2022-12-29T01:31:15;34.43;;;27.13;;
11338;SDS011;5724;42.684;23.252;2022-12-29T01:33:41;35.70;;;27.90;;
11338;SDS011;5724;42.684;23.252;2022-12-29T01:36:08;36.07;;;28.23;;
11338;SDS011;5724;42.684;23.252;2022-12-29T01:38:36;32.53;;;27.20;;
11338;SDS011;5724;42.684;23.252;2022-12-29T01:41:03;33.20;;;28.23;;
11338;SDS011;5724;42.684;23.252;2022-12-29T01:48:58;32.30;;;27.87;;
11338;SDS011;5724;42.684;23.252;2022-12-29T01:51:27;32.20;;;27.53;;
11338;SDS011;5724;42.684;23.252;2022-12-29T01:53:57;30.13;;;26.17;;
11338;SDS011;5724;42.684;23.252;2022-12-29T01:56:25;32.10;;;26.87;;
11338;SDS011;5724;42.684;23.252;2022-12-29T01:58:54;32.20;;;26.47;;
11338;SDS011;5724;42.684;23.252;2022-12-29T02:01:25;32.80;;;28.10;;
11338;SDS011;5724;42.684;23.252;2022-12-29T02:03:50;31.83;;;26.63;;
11338;SDS011;5724;42.684;23.252;2022-12-29T02:06:21;32.30;;;26.70;;
11338;SDS011;5724;42.684;23.252;2022-12-29T02:08:49;33.70;;;26.87;;
11338;SDS011;5724;42.684;23.252;2022-12-29T02:11:17;34.10;;;27.63;;
11338;SDS011;5724;42.684;23.252;2022-12-29T02:13:44;30.70;;;26.93;;
11338;SDS011;5724;42.684;23.252;2022-12-29T02:18:47;36.40;;;27.30;;
11338;SDS011;5724;42.684;23.252;2022-12-29T02:21:33;36.43;;;27.77;;
11338;SDS011;5724;42.684;23.252;2022-12-29T02:30:05;35.83;;;28.13;;
11338;SDS011;5724;42.684;23.252;2022-12-29T02:37:41;35.63;;;28.80;;
11338;SDS011;5724;42.684;23.252;2022-12-29T02:43:01;39.27;;;31.17;;
11338;SDS011;5724;42.684;23.252;2022-12-29T02:45:46;41.40;;;31.07;;
11338;SDS011;5724;42.684;23.252;2022-12-29T02:50:51;39.73;;;30.33;;
11338;SDS011;5724;42.684;23.252;2022-12-29T02:53:24;39.57;;;29.97;;
11338;SDS011;5724;42.684;23.252;2022-12-29T02:56:09;37.60;;;30.80;;
11338;SDS011;5724;42.684;23.252;2022-12-29T02:58:35;39.93;;;28.80;;
11338;SDS011;5724;42.684;23.252;2022-12-29T03:06:59;35.83;;;27.73;;
11338;SDS011;5724;42.684;23.252;2022-12-29T03:09:43;35.00;;;28.10;;
11338;SDS011;5724;42.684;23.252;2022-12-29T03:15:21;32.57;;;27.20;;
11338;SDS011;5724;42.684;23.252;2022-12-29T03:18:10;35.57;;;28.67;;
11338;SDS011;5724;42.684;23.252;2022-12-29T03:20:54;35.70;;;28.87;;
11338;SDS011;5724;42.684;23.252;2022-12-29T03:23:26;32.40;;;27.13;;
11338;SDS011;5724;42.684;23.252;2022-12-29T03:25:54;34.00;;;26.87;;
11338;SDS011;5724;42.684;23.252;2022-12-29T03:28:27;32.93;;;26.43;;
11338;SDS011;5724;42.684;23.252;2022-12-29T03:30:57;30.57;;;26.63;;
11338;SDS011;5724;42.684;23.252;2022-12-29T03:33:25;31.33;;;26.33;;
11338;SDS011;5724;42.684;23.252;2022-12-29T03:35:54;32.70;;;26.67;;
11338;SDS011;5724;42.684;23.252;2022-12-29T03:38:31;29.93;;;25.10;;
11338;SDS011;5724;42.684;23.252;2022-12-29T03:41:01;31.03;;;26.70;;
11338;SDS011;5724;42.684;23.252;2022-12-29T03:43:30;30.03;;;25.30;;
11338;SDS011;5724;42.684;23.252;2022-12-29T03:45:57;31.10;;;25.30;;
11338;SDS011;5724;42.684;23.252;2022-12-29T03:48:22;30.33;;;26.03;;
11338;SDS011;5724;42.684;23.252;2022-12-29T03:50:47;28.90;;;25.60;;
11338;SDS011;5724;42.684;23.252;2022-12-29T03:53:13;33.57;;;27.40;;
11338;SDS011;5724;42.684;23.252;2022-12-29T03:55:38;33.63;;;27.83;;
11338;SDS011;5724;42.684;23.252;2022-12-29T03:58:04;35.33;;;28.77;;
11338;SDS011;5724;42.684;23.252;2022-12-29T04:00:30;33.93;;;28.10;;
11338;SDS011;5724;42.684;23.252;2022-12-29T04:02:56;33.80;;;28.27;;
11338;SDS011;5724;42.684;23.252;2022-12-29T04:05:21;32.23;;;26.43;;
11338;SDS011;5724;42.684;23.252;2022-12-29T04:07:47;33.30;;;27.67;;
11338;SDS011;5724;42.684;23.252;2022-12-29T04:10:12;32.43;;;27.53;;
11338;SDS011;5724;42.684;23.252;2022-12-29T04:12:38;38.70;;;28.67;;
11338;SDS011;5724;42.684;23.252;2022-12-29T04:15:03;32.10;;;27.47;;
11338;SDS011;5724;42.684;23.252;2022-12-29T04:17:29;31.87;;;27.57;;
11338;SDS011;5724;42.684;23.252;2022-12-29T04:19:55;36.97;;;27.50;;
11338;SDS011;5724;42.684;23.252;2022-12-29T04:22:40;29.57;;;26.20;;
11338;SDS011;5724;42.684;23.252;2022-12-29T04:25:06;31.87;;;25.70;;
11338;SDS011;5724;42.684;23.252;2022-12-29T04:27:31;35.27;;;28.53;;
11338;SDS011;5724;42.684;23.252;2022-12-29T04:29:57;35.10;;;29.10;;
11338;SDS011;5724;42.684;23.252;2022-12-29T04:32:22;36.97;;;28.87;;
11338;SDS011;5724;42.684;23.252;2022-12-29T04:34:48;35.60;;;27.17;;
11338;SDS011;5724;42.684;23.252;2022-12-29T04:37:13;35.37;;;28.10;;
11338;SDS011;5724;42.684;23.252;2022-12-29T04:39:38;36.67;;;29.97;;
11338;SDS011;5724;42.684;23.252;2022-12-29T04:42:04;38.47;;;30.00;;
11338;SDS011;5724;42.684;23.252;2022-12-29T04:44:29;34.60;;;27.80;;
11338;SDS011;5724;42.684;23.252;2022-12-29T04:46:55;39.30;;;30.93;;
11338;SDS011;5724;42.684;23.252;2022-12-29T04:49:20;39.00;;;31.53;;
11338;SDS011;5724;42.684;23.252;2022-12-29T04:51:46;40.83;;;33.70;;
11338;SDS011;5724;42.684;23.252;2022-12-29T04:54:11;48.80;;;37.43;;
11338;SDS011;5724;42.684;23.252;2022-12-29T04:56:37;48.40;;;36.97;;
11338;SDS011;5724;42.684;23.252;2022-12-29T04:59:02;46.67;;;35.50;;
11338;SDS011;5724;42.684;23.252;2022-12-29T05:01:27;46.23;;;34.70;;
11338;SDS011;5724;42.684;23.252;2022-12-29T05:03:53;45.33;;;34.43;;
11338;SDS011;5724;42.684;23.252;2022-12-29T05:06:18;45.73;;;35.47;;
11338;SDS011;5724;42.684;23.252;2022-12-29T05:08:44;42.80;;;33.50;;
11338;SDS011;5724;42.684;23.252;2022-12-29T05:11:09;38.87;;;31.67;;
11338;SDS011;5724;42.684;23.252;2022-12-29T05:13:35;43.37;;;33.17;;
11338;SDS011;5724;42.684;23.252;2022-12-29T05:16:00;35.10;;;28.23;;
11338;SDS011;5724;42.684;23.252;2022-12-29T05:18:26;31.63;;;26.80;;
11338;SDS011;5724;42.684;23.252;2022-12-29T05:20:51;31.57;;;27.03;;
11338;SDS011;5724;42.684;23.252;2022-12-29T05:23:17;28.50;;;24.00;;
11338;SDS011;5724;42.684;23.252;2022-12-29T05:25:43;30.10;;;25.60;;
11338;SDS011;5724;42.684;23.252;2022-12-29T05:28:10;33.83;;;26.90;;
11338;SDS011;5724;42.684;23.252;2022-12-29T05:30:35;32.83;;;26.77;;
11338;SDS011;5724;42.684;23.252;2022-12-29T05:33:01;31.10;;;26.93;;
11338;SDS011;5724;42.684;23.252;2022-12-29T05:35:26;31.50;;;25.27;;
11338;SDS011;5724;42.684;23.252;2022-12-29T05:37:52;35.20;;;26.87;;
11338;SDS011;5724;42.684;23.252;2022-12-29T05:40:17;31.07;;;26.70;;
11338;SDS011;5724;42.684;23.252;2022-12-29T05:42:42;28.60;;;25.50;;
11338;SDS011;5724;42.684;23.252;2022-12-29T05:45:08;32.47;;;27.20;;
11338;SDS011;5724;42.684;23.252;2022-12-29T05:47:34;29.60;;;25.87;;
11338;SDS011;5724;42.684;23.252;2022-12-29T05:50:00;31.17;;;26.13;;
11338;SDS011;5724;42.684;23.252;2022-12-29T05:52:26;34.60;;;25.60;;
11338;SDS011;5724;42.684;23.252;2022-12-29T05:54:51;31.20;;;25.77;;
11338;SDS011;5724;42.684;23.252;2022-12-29T05:57:17;31.53;;;26.23;;
11338;SDS011;5724;42.684;23.252;2022-12-29T05:59:42;32.00;;;26.73;;
11338;SDS011;5724;42.684;23.252;2022-12-29T06:02:08;30.90;;;24.90;;
11338;SDS011;5724;42.684;23.252;2022-12-29T06:04:34;30.83;;;26.13;;
11338;SDS011;5724;42.684;23.252;2022-12-29T06:07:00;31.73;;;25.77;;
11338;SDS011;5724;42.684;23.252;2022-12-29T06:09:25;27.83;;;24.77;;
11338;SDS011;5724;42.684;23.252;2022-12-29T06:11:51;29.73;;;25.27;;
11338;SDS011;5724;42.684;23.252;2022-12-29T06:14:16;28.93;;;24.87;;
11338;SDS011;5724;42.684;23.252;2022-12-29T06:16:42;29.33;;;25.70;;
11338;SDS011;5724;42.684;23.252;2022-12-29T06:19:07;30.40;;;25.47;;
11338;SDS011;5724;42.684;23.252;2022-12-29T06:21:33;29.83;;;25.57;;
11338;SDS011;5724;42.684;23.252;2022-12-29T06:23:58;29.50;;;24.90;;
11338;SDS011;5724;42.684;23.252;2022-12-29T06:26:24;28.20;;;24.50;;
11338;SDS011;5724;42.684;23.252;2022-12-29T06:28:49;29.67;;;25.83;;
11338;SDS011;5724;42.684;23.252;2022-12-29T06:31:15;33.83;;;26.07;;
11338;SDS011;5724;42.684;23.252;2022-12-29T06:33:40;32.20;;;27.70;;
11338;SDS011;5724;42.684;23.252;2022-12-29T06:36:06;27.60;;;24.67;;
11338;SDS011;5724;42.684;23.252;2022-12-29T06:38:31;29.00;;;25.80;;
11338;SDS011;5724;42.684;23.252;2022-12-29T06:40:57;31.17;;;26.43;;
11338;SDS011;5724;42.684;23.252;2022-12-29T06:43:22;29.03;;;25.07;;
11338;SDS011;5724;42.684;23.252;2022-12-29T06:45:48;31.43;;;27.87;;
11338;SDS011;5724;42.684;23.252;2022-12-29T06:48:13;35.03;;;25.93;;
11338;SDS011;5724;42.684;23.252;2022-12-29T06:50:39;28.97;;;24.53;;
11338;SDS011;5724;42.684;23.252;2022-12-29T06:53:04;31.60;;;26.23;;
11338;SDS011;5724;42.684;23.252;2022-12-29T06:55:30;28.70;;;24.07;;
11338;SDS011;5724;42.684;23.252;2022-12-29T06:57:56;31.03;;;27.37;;
11338;SDS011;5724;42.684;23.252;2022-12-29T07:00:22;30.70;;;26.23;;
11338;SDS011;5724;42.684;23.252;2022-12-29T07:02:49;31.40;;;25.17;;
11338;SDS011;5724;42.684;23.252;2022-12-29T07:05:14;32.10;;;26.20;;
11338;SDS011;5724;42.684;23.252;2022-12-29T07:07:40;28.57;;;24.13;;
11338;SDS011;5724;42.684;23.252;2022-12-29T07:10:05;30.70;;;26.43;;
11338;SDS011;5724;42.684;23.252;2022-12-29T07:12:31;29.37;;;25.67;;
11338;SDS011;5724;42.684;23.252;2022-12-29T07:14:56;31.17;;;26.40;;
11338;SDS011;5724;42.684;23.252;2022-12-29T07:17:22;28.13;;;24.43;;
11338;SDS011;5724;42.684;23.252;2022-12-29T07:19:47;28.43;;;25.03;;
11338;SDS011;5724;42.684;23.252;2022-12-29T07:22:13;25.03;;;22.43;;
11338;SDS011;5724;42.684;23.252;2022-12-29T07:24:38;28.47;;;24.27;;
11338;SDS011;5724;42.684;23.252;2022-12-29T07:27:03;27.07;;;23.50;;
11338;SDS011;5724;42.684;23.252;2022-12-29T07:29:29;32.23;;;23.80;;
11338;SDS011;5724;42.684;23.252;2022-12-29T07:31:55;27.27;;;22.90;;
11338;SDS011;5724;42.684;23.252;2022-12-29T07:34:20;28.47;;;23.87;;
11338;SDS011;5724;42.684;23.252;2022-12-29T07:36:45;28.77;;;23.80;;
11338;SDS011;5724;42.684;23.252;2022-12-29T07:39:11;27.87;;;24.97;;
11338;SDS011;5724;42.684;23.252;2022-12-29T07:41:37;27.93;;;24.50;;
11338;SDS011;5724;42.684;23.252;2022-12-29T07:44:02;30.33;;;25.23;;
11338;SDS011;5724;42.684;23.252;2022-12-29T07:46:28;28.13;;;24.97;;
11338;SDS011;5724;42.684;23.252;2022-12-29T07:48:53;30.67;;;26.03;;
11338;SDS011;5724;42.684;23.252;2022-12-29T07:51:19;31.17;;;25.73;;
11338;SDS011;5724;42.684;23.252;2022-12-29T07:53:44;31.50;;;26.03;;
11338;SDS011;5724;42.684;23.252;2022-12-29T07:56:10;31.57;;;26.00;;
11338;SDS011;5724;42.684;23.252;2022-12-29T07:58:35;32.93;;;26.43;;
11338;SDS011;5724;42.684;23.252;2022-12-29T08:01:01;34.00;;;26.40;;
11338;SDS011;5724;42.684;23.252;2022-12-29T08:03:26;27.93;;;24.13;;
11338;SDS011;5724;42.684;23.252;2022-12-29T08:05:52;28.17;;;25.17;;
11338;SDS011;5724;42.684;23.252;2022-12-29T08:08:17;30.43;;;25.07;;
11338;SDS011;5724;42.684;23.252;2022-12-29T08:10:43;26.63;;;23.67;;
11338;SDS011;5724;42.684;23.252;2022-12-29T08:13:08;30.63;;;24.90;;
11338;SDS011;5724;42.684;23.252;2022-12-29T08:15:34;28.00;;;24.13;;
11338;SDS011;5724;42.684;23.252;2022-12-29T08:17:59;30.73;;;25.50;;
11338;SDS011;5724;42.684;23.252;2022-12-29T08:20:25;28.90;;;24.63;;
11338;SDS011;5724;42.684;23.252;2022-12-29T08:22:50;28.67;;;23.47;;
11338;SDS011;5724;42.684;23.252;2022-12-29T08:25:16;27.23;;;23.50;;
11338;SDS011;5724;42.684;23.252;2022-12-29T08:27:41;29.07;;;24.40;;
11338;SDS011;5724;42.684;23.252;2022-12-29T08:30:07;28.90;;;23.40;;
11338;SDS011;5724;42.684;23.252;2022-12-29T08:32:33;26.27;;;23.40;;
11338;SDS011;5724;42.684;23.252;2022-12-29T08:34:58;26.03;;;22.27;;
11338;SDS011;5724;42.684;23.252;2022-12-29T08:37:24;26.23;;;22.17;;
11338;SDS011;5724;42.684;23.252;2022-12-29T08:39:49;26.03;;;22.07;;
11338;SDS011;5724;42.684;23.252;2022-12-29T08:42:15;24.47;;;21.93;;
11338;SDS011;5724;42.684;23.252;2022-12-29T08:44:40;27.00;;;22.30;;
11338;SDS011;5724;42.684;23.252;2022-12-29T08:47:06;27.50;;;21.63;;
11338;SDS011;5724;42.684;23.252;2022-12-29T08:49:32;27.53;;;22.33;;
11338;SDS011;5724;42.684;23.252;2022-12-29T08:51:58;26.00;;;20.87;;
11338;SDS011;5724;42.684;23.252;2022-12-29T08:54:24;25.03;;;20.77;;
11338;SDS011;5724;42.684;23.252;2022-12-29T08:56:50;24.50;;;20.47;;
11338;SDS011;5724;42.684;23.252;2022-12-29T08:59:15;21.67;;;19.47;;
11338;SDS011;5724;42.684;23.252;2022-12-29T09:01:40;24.43;;;20.03;;
11338;SDS011;5724;42.684;23.252;2022-12-29T09:04:06;23.13;;;20.67;;
11338;SDS011;5724;42.684;23.252;2022-12-29T09:06:32;23.03;;;20.37;;
11338;SDS011;5724;42.684;23.252;2022-12-29T09:08:58;23.93;;;19.77;;
11338;SDS011;5724;42.684;23.252;2022-12-29T09:11:24;22.50;;;19.40;;
11338;SDS011;5724;42.684;23.252;2022-12-29T09:13:50;23.27;;;19.53;;
11338;SDS011;5724;42.684;23.252;2022-12-29T09:16:17;21.03;;;18.43;;
11338;SDS011;5724;42.684;23.252;2022-12-29T09:18:43;25.23;;;19.73;;
11338;SDS011;5724;42.684;23.252;2022-12-29T09:21:09;25.23;;;18.73;;
11338;SDS011;5724;42.684;23.252;2022-12-29T09:23:36;23.77;;;19.27;;
11338;SDS011;5724;42.684;23.252;2022-12-29T09:26:02;22.20;;;19.33;;
11338;SDS011;5724;42.684;23.252;2022-12-29T09:28:28;21.33;;;19.23;;
11338;SDS011;5724;42.684;23.252;2022-12-29T09:30:54;23.03;;;20.67;;
11338;SDS011;5724;42.684;23.252;2022-12-29T09:33:20;24.10;;;21.57;;
11338;SDS011;5724;42.684;23.252;2022-12-29T09:35:50;20.03;;;17.93;;
11338;SDS011;5724;42.684;23.252;2022-12-29T09:38:17;21.77;;;19.55;;
11338;SDS011;5724;42.684;23.252;2022-12-29T09:40:44;20.97;;;18.50;;
11338;SDS011;5724;42.684;23.252;2022-12-29T09:43:26;21.93;;;19.07;;
11338;SDS011;5724;42.684;23.252;2022-12-29T09:51:59;24.20;;;19.23;;
11338;SDS011;5724;42.684;23.252;2022-12-29T09:54:38;23.77;;;18.30;;
11338;SDS011;5724;42.684;23.252;2022-12-29T09:57:27;21.37;;;19.13;;
11338;SDS011;5724;42.684;23.252;2022-12-29T10:00:20;25.00;;;19.37;;
11338;SDS011;5724;42.684;23.252;2022-12-29T10:02:50;22.93;;;20.47;;
11338;SDS011;5724;42.684;23.252;2022-12-29T10:10:51;25.70;;;20.93;;
11338;SDS011;5724;42.684;23.252;2022-12-29T10:16:24;24.30;;;21.50;;
11338;SDS011;5724;42.684;23.252;2022-12-29T10:19:05;27.67;;;23.40;;
11338;SDS011;5724;42.684;23.252;2022-12-29T10:24:19;28.10;;;22.00;;
11338;SDS011;5724;42.684;23.252;2022-12-29T10:26:46;25.67;;;21.57;;
11338;SDS011;5724;42.684;23.252;2022-12-29T10:29:18;28.27;;;21.80;;
11338;SDS011;5724;42.684;23.252;2022-12-29T10:32:02;27.45;;;22.00;;
11338;SDS011;5724;42.684;23.252;2022-12-29T10:34:33;25.23;;;21.95;;
11338;SDS011;5724;42.684;23.252;2022-12-29T10:39:59;25.92;;;22.27;;
11338;SDS011;5724;42.684;23.252;2022-12-29T10:42:37;23.55;;;21.15;;
11338;SDS011;5724;42.684;23.252;2022-12-29T10:45:13;23.65;;;21.10;;
11338;SDS011;5724;42.684;23.252;2022-12-29T10:48:01;23.88;;;21.35;;
11338;SDS011;5724;42.684;23.252;2022-12-29T10:50:31;24.88;;;21.90;;
11338;SDS011;5724;42.684;23.252;2022-12-29T10:53:00;25.17;;;22.23;;
11338;SDS011;5724;42.684;23.252;2022-12-29T10:55:33;27.77;;;21.58;;
11338;SDS011;5724;42.684;23.252;2022-12-29T10:58:02;27.55;;;23.10;;
11338;SDS011;5724;42.684;23.252;2022-12-29T11:00:31;24.88;;;21.27;;
11338;SDS011;5724;42.684;23.252;2022-12-29T11:07:58;30.25;;;23.42;;
11338;SDS011;5724;42.684;23.252;2022-12-29T11:15:24;26.92;;;22.75;;
11338;SDS011;5724;42.684;23.252;2022-12-29T11:17:53;23.60;;;21.10;;
11338;SDS011;5724;42.684;23.252;2022-12-29T11:22:53;25.48;;;20.63;;
11338;SDS011;5724;42.684;23.252;2022-12-29T11:25:19;26.27;;;20.75;;
11338;SDS011;5724;42.684;23.252;2022-12-29T11:28:01;27.25;;;22.25;;
11338;SDS011;5724;42.684;23.252;2022-12-29T11:30:38;26.75;;;23.70;;
11338;SDS011;5724;42.684;23.252;2022-12-29T11:33:04;31.85;;;26.63;;
11338;SDS011;5724;42.684;23.252;2022-12-29T11:35:34;26.13;;;23.33;;
11338;SDS011;5724;42.684;23.252;2022-12-29T11:38:02;25.50;;;22.35;;
11338;SDS011;5724;42.684;23.252;2022-12-29T11:40:28;23.58;;;20.75;;
11338;SDS011;5724;42.684;23.252;2022-12-29T11:43:04;23.63;;;21.00;;
11338;SDS011;5724;42.684;23.252;2022-12-29T11:45:31;29.13;;;21.98;;
11338;SDS011;5724;42.684;23.252;2022-12-29T11:48:20;29.58;;;22.08;;
11338;SDS011;5724;42.684;23.252;2022-12-29T11:50:52;27.20;;;23.25;;
11338;SDS011;5724;42.684;23.252;2022-12-29T11:53:23;28.67;;;22.85;;
11338;SDS011;5724;42.684;23.252;2022-12-29T11:55:53;28.63;;;22.77;;
11338;SDS011;5724;42.684;23.252;2022-12-29T11:58:29;29.02;;;21.67;;
11338;SDS011;5724;42.684;23.252;2022-12-29T12:00:57;32.13;;;22.75;;
11338;SDS011;5724;42.684;23.252;2022-12-29T12:03:29;31.15;;;22.27;;
11338;SDS011;5724;42.684;23.252;2022-12-29T12:05:58;27.15;;;23.60;;
11338;SDS011;5724;42.684;23.252;2022-12-29T12:19:01;29.85;;;23.58;;
11338;SDS011;5724;42.684;23.252;2022-12-29T12:21:39;31.00;;;23.87;;
11338;SDS011;5724;42.684;23.252;2022-12-29T12:26:53;30.25;;;23.27;;
11338;SDS011;5724;42.684;23.252;2022-12-29T12:29:25;29.35;;;23.13;;
11338;SDS011;5724;42.684;23.252;2022-12-29T12:32:22;28.92;;;23.25;;
11338;SDS011;5724;42.684;23.252;2022-12-29T12:34:54;28.05;;;23.15;;
11338;SDS011;5724;42.684;23.252;2022-12-29T12:37:26;29.55;;;23.40;;
11338;SDS011;5724;42.684;23.252;2022-12-29T12:42:58;29.58;;;22.83;;
11338;SDS011;5724;42.684;23.252;2022-12-29T12:58:48;37.60;;;26.17;;
11338;SDS011;5724;42.684;23.252;2022-12-29T13:06:43;31.13;;;24.67;;
11338;SDS011;5724;42.684;23.252;2022-12-29T13:09:25;32.58;;;23.65;;
11338;SDS011;5724;42.684;23.252;2022-12-29T13:12:07;28.98;;;22.88;;
11338;SDS011;5724;42.684;23.252;2022-12-29T13:17:40;29.48;;;23.58;;
11338;SDS011;5724;42.684;23.252;2022-12-29T13:22:50;53.22;;;37.80;;
11338;SDS011;5724;42.684;23.252;2022-12-29T13:33:31;50.67;;;38.28;;
11338;SDS011;5724;42.684;23.252;2022-12-29T13:38:39;45.70;;;35.47;;
11338;SDS011;5724;42.684;23.252;2022-12-29T13:41:09;43.85;;;34.15;;
11338;SDS011;5724;42.684;23.252;2022-12-29T13:43:43;39.60;;;31.77;;
11338;SDS011;5724;42.684;23.252;2022-12-29T13:46:57;41.17;;;31.73;;
11338;SDS011;5724;42.684;23.252;2022-12-29T13:49:08;42.92;;;31.85;;
11338;SDS011;5724;42.684;23.252;2022-12-29T13:51:47;44.40;;;33.92;;
11338;SDS011;5724;42.684;23.252;2022-12-29T13:57:06;41.78;;;31.33;;
11338;SDS011;5724;42.684;23.252;2022-12-29T13:59:40;39.95;;;30.52;;
11338;SDS011;5724;42.684;23.252;2022-12-29T14:07:45;47.88;;;35.75;;
11338;SDS011;5724;42.684;23.252;2022-12-29T14:13:22;43.08;;;33.00;;
11338;SDS011;5724;42.684;23.252;2022-12-29T14:15:54;52.97;;;41.95;;
11338;SDS011;5724;42.684;23.252;2022-12-29T14:18:26;38.80;;;29.15;;
11338;SDS011;5724;42.684;23.252;2022-12-29T14:26:12;39.45;;;28.27;;
11338;SDS011;5724;42.684;23.252;2022-12-29T14:28:41;35.50;;;26.65;;
11338;SDS011;5724;42.684;23.252;2022-12-29T14:33:39;32.75;;;25.05;;
11338;SDS011;5724;42.684;23.252;2022-12-29T14:38:59;34.17;;;24.83;;
11338;SDS011;5724;42.684;23.252;2022-12-29T14:47:33;37.80;;;28.73;;
11338;SDS011;5724;42.684;23.252;2022-12-29T14:49:39;37.97;;;26.20;;
11338;SDS011;5724;42.684;23.252;2022-12-29T14:52:12;36.47;;;26.90;;
11338;SDS011;5724;42.684;23.252;2022-12-29T14:57:20;35.45;;;26.13;;
11338;SDS011;5724;42.684;23.252;2022-12-29T14:59:52;36.65;;;25.50;;
11338;SDS011;5724;42.684;23.252;2022-12-29T15:02:21;40.87;;;27.20;;
11338;SDS011;5724;42.684;23.252;2022-12-29T15:04:49;40.28;;;27.70;;
11338;SDS011;5724;42.684;23.252;2022-12-29T15:07:18;40.38;;;26.00;;
11338;SDS011;5724;42.684;23.252;2022-12-29T15:09:46;36.83;;;27.50;;
11338;SDS011;5724;42.684;23.252;2022-12-29T15:14:51;50.30;;;36.63;;
11338;SDS011;5724;42.684;23.252;2022-12-29T15:19:59;58.35;;;39.90;;
11338;SDS011;5724;42.684;23.252;2022-12-29T15:22:45;61.35;;;39.78;;
11338;SDS011;5724;42.684;23.252;2022-12-29T15:25:17;56.03;;;39.58;;
11338;SDS011;5724;42.684;23.252;2022-12-29T15:27:47;50.75;;;37.75;;
11338;SDS011;5724;42.684;23.252;2022-12-29T15:30:14;52.35;;;35.78;;
11338;SDS011;5724;42.684;23.252;2022-12-29T15:32:44;54.17;;;36.85;;
11338;SDS011;5724;42.684;23.252;2022-12-29T15:35:28;50.78;;;33.92;;
11338;SDS011;5724;42.684;23.252;2022-12-29T15:37:56;51.38;;;34.83;;
11338;SDS011;5724;42.684;23.252;2022-12-29T15:40:29;54.63;;;35.00;;
11338;SDS011;5724;42.684;23.252;2022-12-29T15:45:44;49.55;;;33.85;;
11338;SDS011;5724;42.684;23.252;2022-12-29T15:48:14;45.85;;;32.00;;
11338;SDS011;5724;42.684;23.252;2022-12-29T15:50:43;45.30;;;31.88;;
11338;SDS011;5724;42.684;23.252;2022-12-29T15:53:11;47.47;;;33.35;;
11338;SDS011;5724;42.684;23.252;2022-12-29T15:55:42;47.30;;;35.13;;
11338;SDS011;5724;42.684;23.252;2022-12-29T15:58:23;52.65;;;37.33;;
11338;SDS011;5724;42.684;23.252;2022-12-29T16:00:55;56.63;;;40.30;;
11338;SDS011;5724;42.684;23.252;2022-12-29T16:03:22;54.03;;;40.28;;
11338;SDS011;5724;42.684;23.252;2022-12-29T16:05:55;52.42;;;36.70;;
11338;SDS011;5724;42.684;23.252;2022-12-29T16:08:33;55.53;;;37.15;;
11338;SDS011;5724;42.684;23.252;2022-12-29T16:11:02;53.20;;;36.55;;
11338;SDS011;5724;42.684;23.252;2022-12-29T16:13:34;49.00;;;37.53;;
11338;SDS011;5724;42.684;23.252;2022-12-29T16:16:13;51.10;;;37.90;;
11338;SDS011;5724;42.684;23.252;2022-12-29T16:18:43;51.95;;;36.10;;
11338;SDS011;5724;42.684;23.252;2022-12-29T16:21:28;57.22;;;37.88;;
11338;SDS011;5724;42.684;23.252;2022-12-29T16:23:59;51.47;;;37.53;;
11338;SDS011;5724;42.684;23.252;2022-12-29T16:26:26;55.93;;;37.20;;
11338;SDS011;5724;42.684;23.252;2022-12-29T16:28:56;53.17;;;37.83;;
11338;SDS011;5724;42.684;23.252;2022-12-29T16:31:33;54.17;;;36.40;;
11338;SDS011;5724;42.684;23.252;2022-12-29T16:37:03;50.07;;;35.47;;
11338;SDS011;5724;42.684;23.252;2022-12-29T16:39:34;46.77;;;33.77;;
11338;SDS011;5724;42.684;23.252;2022-12-29T16:41:59;44.93;;;32.00;;
11338;SDS011;5724;42.684;23.252;2022-12-29T16:44:27;53.93;;;40.97;;
11338;SDS011;5724;42.684;23.252;2022-12-29T16:49:32;61.87;;;40.97;;
11338;SDS011;5724;42.684;23.252;2022-12-29T16:52:00;66.03;;;44.13;;
11338;SDS011;5724;42.684;23.252;2022-12-29T16:54:33;68.80;;;43.33;;
11338;SDS011;5724;42.684;23.252;2022-12-29T16:57:01;57.73;;;42.77;;
11338;SDS011;5724;42.684;23.252;2022-12-29T16:59:29;71.17;;;48.17;;
11338;SDS011;5724;42.684;23.252;2022-12-29T17:01:55;79.57;;;53.33;;
11338;SDS011;5724;42.684;23.252;2022-12-29T17:04:22;70.90;;;50.37;;
11338;SDS011;5724;42.684;23.252;2022-12-29T17:06:48;59.77;;;44.80;;
11338;SDS011;5724;42.684;23.252;2022-12-29T17:09:20;62.20;;;44.20;;
11338;SDS011;5724;42.684;23.252;2022-12-29T17:11:48;62.03;;;42.93;;
11338;SDS011;5724;42.684;23.252;2022-12-29T17:16:53;61.30;;;43.97;;
11338;SDS011;5724;42.684;23.252;2022-12-29T17:19:20;76.10;;;47.80;;
11338;SDS011;5724;42.684;23.252;2022-12-29T17:21:51;59.73;;;43.33;;